createdAt,value
2022-08-20T00:03:50.288Z,13.10
2022-08-20T00:08:56.840Z,9.60
2022-08-20T00:14:02.576Z,13.30
2022-08-20T00:19:08.348Z,8.90
2022-08-20T00:24:10.342Z,9.50
2022-08-20T00:29:12.784Z,13.20
2022-08-20T00:34:17.144Z,8.90
2022-08-20T00:39:22.554Z,12.20
2022-08-20T00:44:25.196Z,11.90
2022-08-20T00:49:31.170Z,6.80
2022-08-20T00:54:53.341Z,11.60
2022-08-20T00:59:56.940Z,10.80
2022-08-20T01:04:58.898Z,9.90
2022-08-20T01:10:04.933Z,10.30
2022-08-20T01:15:11.488Z,10.20
2022-08-20T01:20:20.283Z,6.50
2022-08-20T01:25:36.731Z,12.80
2022-08-20T01:30:40.178Z,9.00
2022-08-20T01:35:42.778Z,7.10
2022-08-20T01:41:00.900Z,9.40
2022-08-20T01:46:04.139Z,8.80
2022-08-20T01:51:09.745Z,11.30
2022-08-20T01:56:15.108Z,12.20
2022-08-20T02:01:21.858Z,11.90
2022-08-20T02:06:26.099Z,9.10
2022-08-20T02:11:29.857Z,15.40
2022-08-20T02:16:36.428Z,11.40
2022-08-20T02:21:43.665Z,10.40
2022-08-20T02:26:45.657Z,9.80
2022-08-20T02:32:24.809Z,12.00
2022-08-20T02:37:10.171Z,10.20
2022-08-20T02:42:12.310Z,12.50
2022-08-20T02:47:14.151Z,11.60
2022-08-20T02:52:16.121Z,8.30
2022-08-20T02:57:22.500Z,8.00
2022-08-20T03:02:24.860Z,11.50
2022-08-20T03:07:27.133Z,11.10
2022-08-20T03:12:29.104Z,12.50
2022-08-20T03:17:31.106Z,12.60
2022-08-20T03:22:33.452Z,15.40
2022-08-20T03:27:36.299Z,14.70
2022-08-20T03:32:39.837Z,10.20
2022-08-20T03:37:44.774Z,28.40
2022-08-20T03:42:52.354Z,26.30
2022-08-20T03:47:55.106Z,16.50
2022-08-20T03:52:58.125Z,17.70
2022-08-20T03:58:05.821Z,18.00
2022-08-20T04:03:08.588Z,20.70
2022-08-20T04:08:20.204Z,23.60
2022-08-20T04:13:22.763Z,20.40
2022-08-20T04:18:26.705Z,20.30
2022-08-20T04:23:30.267Z,16.50
2022-08-20T04:28:34.160Z,21.00
2022-08-20T04:33:36.117Z,16.30
2022-08-20T04:38:48.233Z,16.40
2022-08-20T04:43:54.690Z,15.50
2022-08-20T04:48:57.219Z,21.50
2022-08-20T04:54:00.296Z,17.40
2022-08-20T04:59:02.207Z,18.80
2022-08-20T05:04:04.159Z,19.90
2022-08-20T05:09:07.812Z,14.80
2022-08-20T05:14:15.090Z,16.30
2022-08-20T05:19:17.024Z,17.10
2022-08-20T05:24:21.031Z,19.30
2022-08-20T05:29:23.192Z,19.40
2022-08-20T05:34:25.900Z,18.80
2022-08-20T05:39:28.692Z,24.70
2022-08-20T05:44:31.164Z,22.60
2022-08-20T05:49:33.705Z,23.30
2022-08-20T05:54:37.931Z,26.40
2022-08-20T05:59:40.006Z,30.40
2022-08-20T06:09:46.023Z,34.70
2022-08-20T06:14:48.133Z,34.40
2022-08-20T06:19:50.263Z,31.30
2022-08-20T06:24:52.452Z,31.80
2022-08-20T06:35:00.032Z,33.20
2022-08-20T06:40:12.993Z,29.90
2022-08-20T06:45:18.922Z,31.10
2022-08-20T06:50:31.740Z,30.90
2022-08-20T06:55:39.378Z,33.50
2022-08-20T07:00:53.411Z,28.10
2022-08-20T07:05:58.320Z,30.90
2022-08-20T07:11:02.068Z,31.60
2022-08-20T07:16:08.406Z,28.10
2022-08-20T07:21:12.067Z,33.50
2022-08-20T07:26:14.140Z,32.10
2022-08-20T07:31:36.131Z,33.70
2022-08-20T07:36:38.441Z,31.10
2022-08-20T07:41:42.086Z,29.10
2022-08-20T07:46:47.996Z,31.00
2022-08-20T07:51:50.255Z,26.40
2022-08-20T07:56:53.793Z,27.90
2022-08-20T08:01:56.489Z,28.10
2022-08-20T08:07:00.315Z,27.40
2022-08-20T08:12:04.494Z,28.00
2022-08-20T08:17:07.415Z,28.40
2022-08-20T08:22:12.821Z,25.70
2022-08-20T08:27:18.842Z,24.80
2022-08-20T08:32:21.891Z,26.50
2022-08-20T08:37:24.896Z,25.70
2022-08-20T08:42:43.284Z,27.40
2022-08-20T08:47:47.005Z,25.70
2022-08-20T08:53:00.014Z,26.20
2022-08-20T08:58:16.492Z,28.80
2022-08-20T09:03:26.244Z,25.00
2022-08-20T09:08:44.738Z,27.00
2022-08-20T09:13:50.527Z,24.80
2022-08-20T09:18:53.246Z,22.50
2022-08-20T09:23:58.642Z,22.20
2022-08-20T09:29:01.012Z,24.00
2022-08-20T09:34:07.191Z,20.90
2022-08-20T09:39:18.578Z,25.80
2022-08-20T09:44:27.600Z,24.00
2022-08-20T09:49:31.241Z,23.10
2022-08-20T09:54:34.805Z,23.70
2022-08-20T09:59:37.490Z,22.20
2022-08-20T10:04:39.585Z,23.50
2022-08-20T10:09:43.549Z,21.10
2022-08-20T10:14:48.448Z,20.40
2022-08-20T10:19:52.506Z,22.60
2022-08-20T10:24:55.487Z,20.50
2022-08-20T10:29:57.514Z,19.30
2022-08-20T10:35:00.365Z,21.40
2022-08-20T10:40:06.401Z,25.10
2022-08-20T10:45:14.943Z,22.40
2022-08-20T10:50:19.972Z,22.70
2022-08-20T10:55:22.480Z,22.40
2022-08-20T11:00:26.060Z,23.90
2022-08-20T11:05:28.578Z,21.30
2022-08-20T11:10:43.579Z,22.10
2022-08-20T11:15:45.762Z,21.80
2022-08-20T11:20:50.525Z,22.20
2022-08-20T11:25:53.666Z,20.80
2022-08-20T11:31:06.504Z,21.50
2022-08-20T11:36:08.641Z,20.30
2022-08-20T11:41:13.322Z,22.30
2022-08-20T11:46:24.332Z,19.70
2022-08-20T11:51:31.042Z,25.10
2022-08-20T11:56:52.005Z,19.50
2022-08-20T12:02:02.261Z,19.90
2022-08-20T12:07:12.072Z,19.20
2022-08-20T12:12:20.238Z,18.10
2022-08-20T12:17:32.122Z,18.50
2022-08-20T12:22:34.429Z,17.30
2022-08-20T12:27:37.273Z,19.20
2022-08-20T12:32:42.196Z,19.20
2022-08-20T12:37:45.308Z,18.70
2022-08-20T12:42:50.401Z,18.20
2022-08-20T12:48:01.165Z,18.80
2022-08-20T12:53:10.387Z,18.60
2022-08-20T12:58:20.294Z,20.40
2022-08-20T13:03:22.393Z,18.00
2022-08-20T13:08:24.265Z,17.50
2022-08-20T13:13:26.265Z,17.20
2022-08-20T13:18:29.684Z,22.00
2022-08-20T13:23:31.660Z,17.30
2022-08-20T13:28:34.318Z,16.30
2022-08-20T13:33:36.270Z,18.30
2022-08-20T13:38:43.038Z,16.20
2022-08-20T13:43:45.114Z,15.80
2022-08-20T13:48:47.186Z,15.50
2022-08-20T13:53:50.294Z,14.30
2022-08-20T13:58:53.230Z,14.10
2022-08-20T14:03:55.217Z,15.40
2022-08-20T14:08:58.330Z,13.50
2022-08-20T14:14:00.949Z,14.10
2022-08-20T14:19:03.694Z,15.80
2022-08-20T14:24:06.224Z,13.20
2022-08-20T14:29:08.138Z,14.50
2022-08-20T14:34:10.134Z,18.90
2022-08-20T14:39:12.296Z,14.60
2022-08-20T14:44:14.305Z,13.30
2022-08-20T14:49:16.273Z,13.80
2022-08-20T14:54:18.423Z,14.20
2022-08-20T14:59:20.425Z,23.00
2022-08-20T15:04:22.590Z,17.00
2022-08-20T15:09:24.704Z,12.80
2022-08-20T15:14:27.030Z,18.30
2022-08-20T15:19:31.352Z,18.40
2022-08-20T15:24:33.528Z,17.20
2022-08-20T15:29:35.534Z,19.60
2022-08-20T15:34:39.199Z,18.40
2022-08-20T15:39:42.835Z,22.90
2022-08-20T15:44:45.953Z,24.90
2022-08-20T15:49:52.236Z,17.50
2022-08-20T15:55:02.266Z,12.50
2022-08-20T16:00:35.801Z,8.90
2022-08-20T16:05:46.703Z,5.90
2022-08-20T16:11:07.069Z,8.40
2022-08-20T16:16:47.013Z,5.70
2022-08-20T16:21:53.601Z,6.20
2022-08-20T16:27:40.161Z,4.40
2022-08-20T16:32:50.628Z,7.40
2022-08-20T16:38:22.119Z,3.80
2022-08-20T16:43:35.051Z,3.90
2022-08-20T16:48:39.034Z,2.70
2022-08-20T16:53:45.237Z,3.80
2022-08-20T16:58:51.052Z,3.30
2022-08-20T17:03:59.976Z,5.50
2022-08-20T17:09:19.476Z,2.60
2022-08-20T17:14:36.117Z,4.80
2022-08-20T17:19:40.587Z,4.00
2022-08-20T17:24:42.801Z,3.20
2022-08-20T17:30:08.700Z,3.20
2022-08-20T17:35:22.131Z,4.10
2022-08-20T17:40:29.985Z,3.90
2022-08-20T17:45:40.547Z,4.90
2022-08-20T17:50:44.247Z,4.50
2022-08-20T17:55:50.865Z,5.40
2022-08-20T18:00:52.976Z,6.50
2022-08-20T18:06:08.263Z,4.30
2022-08-20T18:11:12.367Z,5.30
2022-08-20T18:16:34.472Z,4.80
2022-08-20T18:21:55.333Z,4.00
2022-08-20T18:27:10.080Z,5.30
2022-08-20T18:32:38.687Z,7.90
2022-08-20T18:37:40.852Z,4.90
2022-08-20T18:42:46.003Z,5.90
2022-08-20T18:47:47.939Z,8.90
2022-08-20T18:52:53.093Z,5.50
2022-08-20T18:58:12.298Z,6.40
2022-08-20T19:03:23.945Z,5.50
2022-08-20T19:08:41.307Z,5.30
2022-08-20T19:13:59.818Z,6.70
2022-08-20T19:19:01.981Z,6.30
2022-08-20T19:24:08.322Z,6.10
2022-08-20T19:29:17.012Z,6.40
2022-08-20T19:34:23.975Z,6.50
2022-08-20T19:39:28.476Z,7.50
2022-08-20T19:44:33.943Z,6.60
2022-08-20T19:50:01.716Z,8.00
2022-08-20T19:55:05.237Z,6.70
2022-08-20T20:00:17.139Z,9.00
2022-08-20T20:05:19.766Z,7.00
2022-08-20T20:10:32.319Z,7.10
2022-08-20T20:15:40.258Z,6.90
2022-08-20T20:20:50.153Z,7.10
2022-08-20T20:26:06.139Z,8.10
2022-08-20T20:31:13.104Z,9.50
2022-08-20T20:36:17.961Z,9.90
2022-08-20T20:41:23.818Z,9.90
2022-08-20T20:46:30.871Z,10.20
2022-08-20T20:51:43.045Z,10.40
2022-08-20T20:56:57.111Z,11.30
2022-08-20T21:02:00.420Z,10.90
2022-08-20T21:07:12.001Z,12.00
2022-08-20T21:12:14.040Z,11.60
2022-08-20T21:17:24.776Z,11.60
2022-08-20T21:22:28.593Z,9.70
2022-08-20T21:27:31.277Z,10.90
2022-08-20T21:32:39.232Z,10.60
2022-08-20T21:37:52.440Z,8.50
2022-08-20T21:42:54.431Z,7.10
2022-08-20T21:47:57.081Z,9.90
2022-08-20T21:58:04.237Z,7.70
2022-08-20T22:03:06.933Z,5.90
2022-08-20T22:08:10.531Z,6.30
2022-08-20T22:13:13.814Z,7.50
2022-08-20T22:18:20.438Z,6.10
2022-08-20T22:23:27.158Z,6.00
2022-08-20T22:28:35.344Z,5.70
2022-08-20T22:33:43.070Z,6.30
2022-08-20T22:38:54.659Z,5.10
2022-08-20T22:44:02.002Z,5.20
2022-08-20T22:49:10.824Z,5.20
2022-08-20T22:54:22.583Z,5.40
2022-08-20T22:59:26.403Z,6.10
2022-08-20T23:04:37.897Z,5.60
2022-08-20T23:09:52.473Z,6.70
2022-08-20T23:15:00.130Z,5.80
2022-08-20T23:20:14.060Z,6.80
2022-08-20T23:25:16.158Z,6.80
2022-08-20T23:30:19.426Z,7.60
2022-08-20T23:35:22.262Z,9.40
2022-08-20T23:40:28.668Z,6.80
2022-08-20T23:45:31.135Z,9.60
2022-08-20T23:55:35.510Z,8.00
